sensor_id;sensor_type;location;lat;lon;timestamp;P1;durP1;ratioP1;P2;durP2;ratioP2
77148;SDS011;66122;47.130;16.844;2024-02-04T00:05:57;0.20;;;0.10;;
77148;SDS011;66122;47.130;16.844;2024-02-04T00:15:59;0.30;;;0.10;;
77148;SDS011;66122;47.130;16.844;2024-02-04T00:26:03;0.20;;;0.10;;
77148;SDS011;66122;47.130;16.844;2024-02-04T00:36:06;0.30;;;0.10;;
77148;SDS011;66122;47.130;16.844;2024-02-04T00:46:08;0.20;;;0.10;;
77148;SDS011;66122;47.130;16.844;2024-02-04T00:56:12;0.30;;;0.10;;
77148;SDS011;66122;47.130;16.844;2024-02-04T01:06:18;0.30;;;0.10;;
77148;SDS011;66122;47.130;16.844;2024-02-04T01:16:20;0.30;;;0.17;;
77148;SDS011;66122;47.130;16.844;2024-02-04T01:26:23;0.30;;;0.13;;
77148;SDS011;66122;47.130;16.844;2024-02-04T01:36:26;0.32;;;0.20;;
77148;SDS011;66122;47.130;16.844;2024-02-04T01:46:29;0.37;;;0.20;;
77148;SDS011;66122;47.130;16.844;2024-02-04T01:56:31;0.30;;;0.20;;
77148;SDS011;66122;47.130;16.844;2024-02-04T02:06:34;0.22;;;0.10;;
77148;SDS011;66122;47.130;16.844;2024-02-04T02:16:44;0.30;;;0.10;;
77148;SDS011;66122;47.130;16.844;2024-02-04T02:26:49;0.30;;;0.10;;
77148;SDS011;66122;47.130;16.844;2024-02-04T02:36:55;0.38;;;0.20;;
77148;SDS011;66122;47.130;16.844;2024-02-04T02:47:02;0.30;;;0.20;;
77148;SDS011;66122;47.130;16.844;2024-02-04T02:57:06;0.33;;;0.20;;
77148;SDS011;66122;47.130;16.844;2024-02-04T03:07:08;0.30;;;0.10;;
77148;SDS011;66122;47.130;16.844;2024-02-04T03:17:11;0.40;;;0.20;;
77148;SDS011;66122;47.130;16.844;2024-02-04T03:27:16;0.30;;;0.10;;
77148;SDS011;66122;47.130;16.844;2024-02-04T03:37:21;0.30;;;0.10;;
77148;SDS011;66122;47.130;16.844;2024-02-04T03:47:24;0.30;;;0.13;;
77148;SDS011;66122;47.130;16.844;2024-02-04T03:57:26;0.30;;;0.13;;
77148;SDS011;66122;47.130;16.844;2024-02-04T04:07:29;0.30;;;0.10;;
77148;SDS011;66122;47.130;16.844;2024-02-04T04:17:31;0.40;;;0.20;;
77148;SDS011;66122;47.130;16.844;2024-02-04T04:27:34;0.23;;;0.10;;
77148;SDS011;66122;47.130;16.844;2024-02-04T04:37:36;0.40;;;0.20;;
77148;SDS011;66122;47.130;16.844;2024-02-04T04:47:39;0.40;;;0.20;;
77148;SDS011;66122;47.130;16.844;2024-02-04T04:57:41;0.30;;;0.10;;
77148;SDS011;66122;47.130;16.844;2024-02-04T05:07:44;0.30;;;0.10;;
77148;SDS011;66122;47.130;16.844;2024-02-04T05:17:49;0.30;;;0.20;;
77148;SDS011;66122;47.130;16.844;2024-02-04T05:27:51;0.30;;;0.20;;
77148;SDS011;66122;47.130;16.844;2024-02-04T05:37:54;0.20;;;0.10;;
77148;SDS011;66122;47.130;16.844;2024-02-04T05:47:57;0.30;;;0.10;;
77148;SDS011;66122;47.130;16.844;2024-02-04T05:57:59;0.30;;;0.20;;
77148;SDS011;66122;47.130;16.844;2024-02-04T06:08:03;0.20;;;0.10;;
77148;SDS011;66122;47.130;16.844;2024-02-04T06:18:06;0.40;;;0.20;;
77148;SDS011;66122;47.130;16.844;2024-02-04T06:28:09;0.20;;;0.10;;
77148;SDS011;66122;47.130;16.844;2024-02-04T06:38:13;0.30;;;0.10;;
77148;SDS011;66122;47.130;16.844;2024-02-04T06:48:18;0.40;;;0.20;;
77148;SDS011;66122;47.130;16.844;2024-02-04T06:58:21;0.30;;;0.20;;
77148;SDS011;66122;47.130;16.844;2024-02-04T07:08:24;0.30;;;0.17;;
77148;SDS011;66122;47.130;16.844;2024-02-04T07:18:26;0.30;;;0.20;;
77148;SDS011;66122;47.130;16.844;2024-02-04T07:28:29;0.40;;;0.30;;
77148;SDS011;66122;47.130;16.844;2024-02-04T07:38:32;0.40;;;0.20;;
77148;SDS011;66122;47.130;16.844;2024-02-04T07:48:34;0.30;;;0.10;;
77148;SDS011;66122;47.130;16.844;2024-02-04T07:58:37;0.30;;;0.10;;
77148;SDS011;66122;47.130;16.844;2024-02-04T08:08:39;0.40;;;0.20;;
77148;SDS011;66122;47.130;16.844;2024-02-04T08:18:44;0.40;;;0.20;;
77148;SDS011;66122;47.130;16.844;2024-02-04T08:28:47;0.40;;;0.30;;
77148;SDS011;66122;47.130;16.844;2024-02-04T08:38:49;0.40;;;0.20;;
77148;SDS011;66122;47.130;16.844;2024-02-04T08:48:52;0.35;;;0.20;;
77148;SDS011;66122;47.130;16.844;2024-02-04T08:58:54;0.40;;;0.30;;
77148;SDS011;66122;47.130;16.844;2024-02-04T09:08:57;0.40;;;0.20;;
77148;SDS011;66122;47.130;16.844;2024-02-04T09:18:59;0.40;;;0.20;;
77148;SDS011;66122;47.130;16.844;2024-02-04T09:29:03;0.40;;;0.20;;
77148;SDS011;66122;47.130;16.844;2024-02-04T09:39:05;0.50;;;0.40;;
77148;SDS011;66122;47.130;16.844;2024-02-04T09:49:09;0.45;;;0.30;;
77148;SDS011;66122;47.130;16.844;2024-02-04T09:59:12;0.63;;;0.57;;
77148;SDS011;66122;47.130;16.844;2024-02-04T10:09:14;0.53;;;0.40;;
77148;SDS011;66122;47.130;16.844;2024-02-04T10:19:17;0.70;;;0.60;;
77148;SDS011;66122;47.130;16.844;2024-02-04T10:29:20;0.70;;;0.60;;
77148;SDS011;66122;47.130;16.844;2024-02-04T10:39:23;0.50;;;0.30;;
77148;SDS011;66122;47.130;16.844;2024-02-04T10:49:26;0.53;;;0.40;;
77148;SDS011;66122;47.130;16.844;2024-02-04T10:59:30;0.70;;;0.60;;
77148;SDS011;66122;47.130;16.844;2024-02-04T11:09:36;0.60;;;0.43;;
77148;SDS011;66122;47.130;16.844;2024-02-04T11:19:46;0.50;;;0.40;;
77148;SDS011;66122;47.130;16.844;2024-02-04T11:29:53;0.60;;;0.50;;
77148;SDS011;66122;47.130;16.844;2024-02-04T11:39:56;1.03;;;0.93;;
77148;SDS011;66122;47.130;16.844;2024-02-04T11:50:00;0.63;;;0.43;;
77148;SDS011;66122;47.130;16.844;2024-02-04T12:00:04;0.70;;;0.53;;
77148;SDS011;66122;47.130;16.844;2024-02-04T12:10:12;0.80;;;0.70;;
77148;SDS011;66122;47.130;16.844;2024-02-04T12:20:15;0.93;;;0.87;;
77148;SDS011;66122;47.130;16.844;2024-02-04T12:30:18;0.60;;;0.40;;
77148;SDS011;66122;47.130;16.844;2024-02-04T12:40:27;0.70;;;0.60;;
77148;SDS011;66122;47.130;16.844;2024-02-04T12:50:36;0.70;;;0.60;;
77148;SDS011;66122;47.130;16.844;2024-02-04T13:00:40;0.90;;;0.80;;
77148;SDS011;66122;47.130;16.844;2024-02-04T13:10:43;1.00;;;0.90;;
77148;SDS011;66122;47.130;16.844;2024-02-04T13:20:47;1.10;;;1.00;;
77148;SDS011;66122;47.130;16.844;2024-02-04T13:30:51;1.27;;;1.17;;
77148;SDS011;66122;47.130;16.844;2024-02-04T13:40:53;1.00;;;0.90;;
77148;SDS011;66122;47.130;16.844;2024-02-04T13:50:56;0.90;;;0.85;;
77148;SDS011;66122;47.130;16.844;2024-02-04T14:00:59;0.60;;;0.43;;
77148;SDS011;66122;47.130;16.844;2024-02-04T14:11:02;0.60;;;0.40;;
77148;SDS011;66122;47.130;16.844;2024-02-04T14:21:05;0.73;;;0.65;;
77148;SDS011;66122;47.130;16.844;2024-02-04T14:31:09;0.60;;;0.47;;
77148;SDS011;66122;47.130;16.844;2024-02-04T14:41:12;0.70;;;0.63;;
77148;SDS011;66122;47.130;16.844;2024-02-04T14:51:14;0.60;;;0.52;;
77148;SDS011;66122;47.130;16.844;2024-02-04T15:01:17;0.60;;;0.50;;
77148;SDS011;66122;47.130;16.844;2024-02-04T15:11:23;0.60;;;0.50;;
77148;SDS011;66122;47.130;16.844;2024-02-04T15:21:26;0.50;;;0.30;;
77148;SDS011;66122;47.130;16.844;2024-02-04T15:31:30;0.50;;;0.30;;
77148;SDS011;66122;47.130;16.844;2024-02-04T15:41:35;0.60;;;0.40;;
77148;SDS011;66122;47.130;16.844;2024-02-04T15:51:38;0.50;;;0.30;;
77148;SDS011;66122;47.130;16.844;2024-02-04T16:01:42;0.68;;;0.60;;
77148;SDS011;66122;47.130;16.844;2024-02-04T16:12:00;0.40;;;0.30;;
77148;SDS011;66122;47.130;16.844;2024-02-04T16:22:07;0.40;;;0.20;;
77148;SDS011;66122;47.130;16.844;2024-02-04T16:32:11;0.50;;;0.30;;
77148;SDS011;66122;47.130;16.844;2024-02-04T16:42:14;0.60;;;0.43;;
77148;SDS011;66122;47.130;16.844;2024-02-04T16:52:17;0.50;;;0.30;;
77148;SDS011;66122;47.130;16.844;2024-02-04T17:02:20;0.60;;;0.47;;
77148;SDS011;66122;47.130;16.844;2024-02-04T17:12:25;0.30;;;0.20;;
77148;SDS011;66122;47.130;16.844;2024-02-04T17:22:30;0.43;;;0.27;;
77148;SDS011;66122;47.130;16.844;2024-02-04T17:32:37;0.40;;;0.20;;
77148;SDS011;66122;47.130;16.844;2024-02-04T17:42:40;0.30;;;0.20;;
77148;SDS011;66122;47.130;16.844;2024-02-04T17:52:43;0.40;;;0.20;;
77148;SDS011;66122;47.130;16.844;2024-02-04T18:02:45;0.57;;;0.40;;
77148;SDS011;66122;47.130;16.844;2024-02-04T18:12:50;0.50;;;0.40;;
77148;SDS011;66122;47.130;16.844;2024-02-04T18:22:53;0.60;;;0.40;;
77148;SDS011;66122;47.130;16.844;2024-02-04T18:32:55;0.50;;;0.33;;
77148;SDS011;66122;47.130;16.844;2024-02-04T18:42:59;0.40;;;0.23;;
77148;SDS011;66122;47.130;16.844;2024-02-04T18:53:03;0.50;;;0.30;;
77148;SDS011;66122;47.130;16.844;2024-02-04T19:03:07;0.57;;;0.40;;
77148;SDS011;66122;47.130;16.844;2024-02-04T19:13:10;0.33;;;0.20;;
77148;SDS011;66122;47.130;16.844;2024-02-04T19:23:13;0.60;;;0.47;;
77148;SDS011;66122;47.130;16.844;2024-02-04T19:33:15;0.40;;;0.30;;
77148;SDS011;66122;47.130;16.844;2024-02-04T19:43:19;0.50;;;0.37;;
77148;SDS011;66122;47.130;16.844;2024-02-04T19:53:22;0.43;;;0.30;;
77148;SDS011;66122;47.130;16.844;2024-02-04T20:03:24;0.50;;;0.30;;
77148;SDS011;66122;47.130;16.844;2024-02-04T20:13:27;0.40;;;0.20;;
77148;SDS011;66122;47.130;16.844;2024-02-04T20:23:34;0.40;;;0.20;;
77148;SDS011;66122;47.130;16.844;2024-02-04T20:33:37;0.50;;;0.30;;
77148;SDS011;66122;47.130;16.844;2024-02-04T20:43:45;0.40;;;0.20;;
77148;SDS011;66122;47.130;16.844;2024-02-04T20:53:48;0.50;;;0.38;;
77148;SDS011;66122;47.130;16.844;2024-02-04T21:03:51;0.40;;;0.20;;
77148;SDS011;66122;47.130;16.844;2024-02-04T21:13:55;0.50;;;0.40;;
77148;SDS011;66122;47.130;16.844;2024-02-04T21:23:59;0.40;;;0.30;;
77148;SDS011;66122;47.130;16.844;2024-02-04T21:34:03;0.50;;;0.40;;
77148;SDS011;66122;47.130;16.844;2024-02-04T21:44:06;0.50;;;0.40;;
77148;SDS011;66122;47.130;16.844;2024-02-04T21:54:08;0.40;;;0.20;;
77148;SDS011;66122;47.130;16.844;2024-02-04T22:04:11;0.40;;;0.20;;
77148;SDS011;66122;47.130;16.844;2024-02-04T22:14:16;0.50;;;0.40;;
77148;SDS011;66122;47.130;16.844;2024-02-04T22:24:18;0.50;;;0.30;;
77148;SDS011;66122;47.130;16.844;2024-02-04T22:34:21;0.47;;;0.35;;
77148;SDS011;66122;47.130;16.844;2024-02-04T22:44:23;0.30;;;0.20;;
77148;SDS011;66122;47.130;16.844;2024-02-04T22:54:26;0.47;;;0.30;;
77148;SDS011;66122;47.130;16.844;2024-02-04T23:04:28;0.40;;;0.25;;
77148;SDS011;66122;47.130;16.844;2024-02-04T23:14:32;0.40;;;0.30;;
77148;SDS011;66122;47.130;16.844;2024-02-04T23:24:35;0.40;;;0.23;;
77148;SDS011;66122;47.130;16.844;2024-02-04T23:34:39;0.47;;;0.30;;
77148;SDS011;66122;47.130;16.844;2024-02-04T23:44:42;0.40;;;0.20;;
77148;SDS011;66122;47.130;16.844;2024-02-04T23:54:44;0.40;;;0.20;;
